Time;durP1;ratioP1;P1;durP2;ratioP2;P2;SDS_P1;SDS_P2;PMS_P1;PMS_P2;Temp;Humidity;BMP_temperature;BMP_pressure;BME280_temperature;BME280_humidity;BME280_pressure;Samples;Min_cycle;Max_cycle;Signal;HPM_P1;HPM_P2
2021/03/29 00:00:49;;;;;;;;;;;;;;;10.55;100.00;99158.03;5138087;27;19938;-79
2021/03/29 00:03:16;;;;;;;;;;;;;;;10.52;100.00;99152.47;5137647;27;20537;-79
2021/03/29 00:05:43;;;;;;;;;;;;;;;10.54;100.00;99128.47;5098951;28;20397;-78
2021/03/29 00:08:18;;;;;;;;;;;;;;;10.57;100.00;99155.56;5117276;28;20241;-79
2021/03/29 00:10:47;;;;;;;;;;;;;;;10.60;100.00;99140.00;5117315;28;19979;-79
2021/03/29 00:13:14;;;;;;;;;;;;;;;10.59;100.00;99163.53;5131169;27;20282;-79
2021/03/29 00:15:42;;;;;;;;;;;;;;;10.58;100.00;99145.22;5137602;27;20424;-78
2021/03/29 00:18:10;;;;;;;;;;;;;;;10.53;100.00;99157.66;5137720;27;20382;-79
2021/03/29 00:20:39;;;;;;;;;;;;;;;10.53;100.00;99160.44;5137511;27;19923;-79
2021/03/29 00:23:06;;;;;;;;;;;;;;;10.53;100.00;99154.84;5137470;27;20240;-79
2021/03/29 00:25:33;;;;;;;;;;;;;;;10.50;100.00;99171.66;5117114;27;19976;-78
2021/03/29 00:28:00;;;;;;;;;;;;;;;10.53;100.00;99165.22;5137004;27;20247;-78
2021/03/29 00:30:28;;;;;;;;;;;;;;;10.50;100.00;99163.28;5137419;27;19930;-78
2021/03/29 00:32:55;;;;;;;;;;;;;;;10.48;100.00;99154.53;5118609;27;20380;-78
2021/03/29 00:35:23;;;;;;;;;;;;;;;10.49;100.00;99156.13;5137371;27;19927;-79
2021/03/29 00:37:56;;;;;;;;;;;;;;;10.47;100.00;99166.91;5137056;27;19935;-79
2021/03/29 00:40:23;;;;;;;;;;;;;;;10.44;100.00;99157.38;5137335;27;19930;-78
2021/03/29 00:42:54;;;;;;;;;;;;;;;10.52;100.00;99164.44;5137117;27;20034;-79
2021/03/29 00:45:21;;;;;;;;;;;;;;;10.52;100.00;99180.41;5137268;27;19927;-79
2021/03/29 00:47:47;;;;;;;;;;;;;;;10.50;100.00;99175.25;5136901;27;19923;-78
2021/03/29 00:50:16;;;;;;;;;;;;;;;10.51;100.00;99184.44;5118995;27;19923;-79
2021/03/29 00:52:43;;;;;;;;;;;;;;;10.52;100.00;99183.22;5101781;27;20329;-79
2021/03/29 00:55:10;;;;;;;;;;;;;;;10.57;100.00;99182.75;5118679;27;19931;-78
2021/03/29 00:57:38;;;;;;;;;;;;;;;10.58;100.00;99181.53;5136963;27;19981;-79
2021/03/29 01:00:14;;;;;;;;;;;;;;;10.52;100.00;99184.00;5136827;27;20010;-79
2021/03/29 01:02:41;;;;;;;;;;;;;;;10.50;100.00;99194.00;5118417;27;20410;-79
2021/03/29 01:05:12;;;;;;;;;;;;;;;10.47;100.00;99190.06;5136732;27;19923;-79
2021/03/29 01:07:39;;;;;;;;;;;;;;;10.54;100.00;99197.56;5136810;27;19923;-79
2021/03/29 01:10:06;;;;;;;;;;;;;;;10.52;100.00;99191.59;5136475;27;20010;-79
2021/03/29 01:12:33;;;;;;;;;;;;;;;10.54;100.00;99191.97;5118413;27;19927;-79
2021/03/29 01:15:01;;;;;;;;;;;;;;;10.56;100.00;99197.91;5118501;27;20629;-78
2021/03/29 01:17:30;;;;;;;;;;;;;;;10.57;100.00;99199.50;5136662;27;20260;-79
2021/03/29 01:20:03;;;;;;;;;;;;;;;10.56;100.00;99178.34;5136622;27;20381;-79
2021/03/29 01:22:33;;;;;;;;;;;;;;;10.59;100.00;99183.09;5136387;27;19931;-79
2021/03/29 01:25:13;;;;;;;;;;;;;;;10.56;100.00;99186.72;5118387;27;19923;-79
2021/03/29 01:27:43;;;;;;;;;;;;;;;10.55;100.00;99201.94;5136503;27;19923;-79
2021/03/29 01:30:10;;;;;;;;;;;;;;;10.55;100.00;99205.53;5117895;27;20381;-78
2021/03/29 01:32:39;;;;;;;;;;;;;;;10.53;100.00;99190.38;5136314;27;19931;-78
2021/03/29 01:35:30;;;;;;;;;;;;;;;10.56;100.00;99192.31;5136540;27;19935;-79
2021/03/29 01:37:57;;;;;;;;;;;;;;;10.50;100.00;99194.81;5107590;27;19928;-79
2021/03/29 01:40:24;;;;;;;;;;;;;;;10.57;100.00;99196.72;5118167;27;19923;-78
2021/03/29 01:42:51;;;;;;;;;;;;;;;10.58;100.00;99192.69;5136087;27;20010;-78
2021/03/29 01:45:19;;;;;;;;;;;;;;;10.55;100.00;99190.75;5115523;28;19924;-79
2021/03/29 01:47:45;;;;;;;;;;;;;;;10.54;100.00;99205.94;5115610;28;19923;-79
2021/03/29 01:50:15;;;;;;;;;;;;;;;10.56;100.00;99200.69;5097023;28;20302;-79
2021/03/29 01:52:42;;;;;;;;;;;;;;;10.56;100.00;99215.47;5097685;28;20324;-79
2021/03/29 01:55:09;;;;;;;;;;;;;;;10.58;100.00;99218.66;5114871;28;19981;-79
2021/03/29 01:57:36;;;;;;;;;;;;;;;10.58;100.00;99213.06;5115413;28;20375;-79
2021/03/29 02:00:08;;;;;;;;;;;;;;;10.58;100.00;99215.84;5082236;28;20397;-79
2021/03/29 02:02:40;;;;;;;;;;;;;;;10.56;100.00;99237.03;5115207;28;19928;-78
2021/03/29 02:05:17;;;;;;;;;;;;;;;10.54;100.00;99219.91;5096770;28;19924;-79
2021/03/29 02:07:44;;;;;;;;;;;;;;;10.63;100.00;99220.19;5115217;28;20019;-79
2021/03/29 02:10:12;;;;;;;;;;;;;;;10.64;100.00;99233.75;5114814;28;20452;-79
2021/03/29 02:12:40;;;;;;;;;;;;;;;10.65;100.00;99221.34;5114989;28;19924;-79
2021/03/29 02:15:18;;;;;;;;;;;;;;;10.66;100.00;99219.34;5082268;28;19924;-79
2021/03/29 02:17:46;;;;;;;;;;;;;;;10.67;100.00;99215.31;5115036;28;19930;-79
2021/03/29 02:20:17;;;;;;;;;;;;;;;10.62;100.00;99218.59;5114510;28;20030;-79
2021/03/29 02:22:45;;;;;;;;;;;;;;;10.64;100.00;99221.75;5100715;28;19924;-78
2021/03/29 02:25:12;;;;;;;;;;;;;;;10.64;100.00;99219.75;5100408;28;20402;-78
2021/03/29 02:27:39;;;;;;;;;;;;;;;10.65;100.00;99207.38;5106183;28;20524;-78
2021/03/29 02:30:10;;;;;;;;;;;;;;;10.63;100.00;99195.03;5114401;28;19931;-78
2021/03/29 02:32:38;;;;;;;;;;;;;;;10.60;100.00;99198.66;5110593;28;19981;-79
2021/03/29 02:35:06;;;;;;;;;;;;;;;10.62;100.00;99208.22;5114084;28;19924;-79
2021/03/29 02:37:32;;;;;;;;;;;;;;;10.64;100.00;99205.00;5114019;28;19931;-79
2021/03/29 02:39:59;;;;;;;;;;;;;;;10.68;100.00;99189.75;5113900;28;19931;-79
2021/03/29 02:42:25;;;;;;;;;;;;;;;10.65;100.00;99195.38;5114040;28;20015;-79
2021/03/29 02:44:52;;;;;;;;;;;;;;;10.68;100.00;99188.97;5084954;28;19992;-79
2021/03/29 02:47:19;;;;;;;;;;;;;;;10.68;100.00;99194.53;5115518;27;19935;-79
2021/03/29 02:49:47;;;;;;;;;;;;;;;10.70;100.00;99192.94;5112760;28;19927;-78
2021/03/29 02:52:15;;;;;;;;;;;;;;;10.73;100.00;99197.69;5113308;28;19931;-79
2021/03/29 02:54:42;;;;;;;;;;;;;;;10.72;100.00;99179.31;5134749;27;19927;-78
2021/03/29 02:57:09;;;;;;;;;;;;;;;10.72;100.00;99187.69;5134640;27;20599;-79
2021/03/29 02:59:37;;;;;;;;;;;;;;;10.72;100.00;99189.72;5134647;27;19969;-78
2021/03/29 03:02:07;;;;;;;;;;;;;;;10.70;100.00;99192.94;5134469;27;20042;-79
2021/03/29 03:04:34;;;;;;;;;;;;;;;10.69;100.00;99187.75;5134392;27;20019;-78
2021/03/29 03:07:01;;;;;;;;;;;;;;;10.69;100.00;99187.75;5134652;27;20271;-79
2021/03/29 03:09:28;;;;;;;;;;;;;;;10.67;100.00;99176.19;5134392;27;19930;-79
2021/03/29 03:11:55;;;;;;;;;;;;;;;10.68;100.00;99172.19;5134563;27;19923;-79
2021/03/29 03:14:22;;;;;;;;;;;;;;;10.65;100.00;99173.03;5134506;27;19935;-78
2021/03/29 03:16:49;;;;;;;;;;;;;;;10.64;100.00;99188.22;5134397;27;19924;-78
2021/03/29 03:19:18;;;;;;;;;;;;;;;10.64;100.00;99188.22;5134520;27;19923;-78
2021/03/29 03:21:45;;;;;;;;;;;;;;;10.60;100.00;99182.69;5112455;28;19932;-79
2021/03/29 03:24:11;;;;;;;;;;;;;;;10.63;100.00;99183.84;5125139;27;19971;-78
2021/03/29 03:26:45;;;;;;;;;;;;;;;10.66;100.00;99183.00;5134325;27;19931;-79
2021/03/29 03:29:11;;;;;;;;;;;;;;;10.64;100.00;99182.63;5134365;27;19927;-78
2021/03/29 03:31:38;;;;;;;;;;;;;;;10.63;100.00;99183.84;5133906;27;19976;-78
2021/03/29 03:34:05;;;;;;;;;;;;;;;10.62;100.00;99169.09;5135638;27;19927;-78
2021/03/29 03:36:33;;;;;;;;;;;;;;;10.64;100.00;99203.00;5138478;27;20069;-78
2021/03/29 03:39:00;;;;;;;;;;;;;;;10.64;100.00;99183.44;5138609;27;19923;-79
2021/03/29 03:41:29;;;;;;;;;;;;;;;10.65;100.00;99196.19;5138321;27;20024;-78
2021/03/29 03:43:56;;;;;;;;;;;;;;;10.66;100.00;99192.16;5119907;27;19958;-79
2021/03/29 03:46:25;;;;;;;;;;;;;;;10.67;100.00;99190.19;5116534;28;19931;-79
2021/03/29 03:48:53;;;;;;;;;;;;;;;10.65;100.00;99189.78;5135142;27;20022;-78
2021/03/29 03:51:23;;;;;;;;;;;;;;;10.63;100.00;99183.84;5138244;27;20410;-78
2021/03/29 03:53:49;;;;;;;;;;;;;;;10.63;100.00;99186.66;5138087;27;19923;-78
2021/03/29 03:56:16;;;;;;;;;;;;;;;10.62;100.00;99193.44;5138208;27;19923;-78
2021/03/29 03:58:43;;;;;;;;;;;;;;;10.63;100.00;99193.00;5138094;27;20014;-79
2021/03/29 04:01:11;;;;;;;;;;;;;;;10.67;100.00;99198.56;5137994;27;20374;-79
2021/03/29 04:03:37;;;;;;;;;;;;;;;10.75;100.00;99172.09;5137989;27;19976;-78
2021/03/29 04:06:04;;;;;;;;;;;;;;;10.75;100.00;99200.81;5137828;27;19924;-78
2021/03/29 04:08:46;;;;;;;;;;;;;;;10.73;100.00;99189.28;5138001;27;19946;-79
2021/03/29 04:11:13;;;;;;;;;;;;;;;10.73;100.00;99196.88;5137647;27;19927;-79
2021/03/29 04:13:40;;;;;;;;;;;;;;;10.74;100.00;99187.28;5137840;27;20071;-78
2021/03/29 04:16:08;;;;;;;;;;;;;;;10.76;100.00;99191.25;5137517;27;19930;-78
2021/03/29 04:18:36;;;;;;;;;;;;;;;10.76;100.00;99191.25;5137837;27;19924;-79
2021/03/29 04:21:03;;;;;;;;;;;;;;;10.74;100.00;99190.06;5137720;27;20540;-79
2021/03/29 04:23:44;;;;;;;;;;;;;;;10.73;100.00;99202.47;5116105;28;20469;-79
2021/03/29 04:26:11;;;;;;;;;;;;;;;10.71;100.00;99210.47;5117983;27;19923;-79
2021/03/29 04:28:37;;;;;;;;;;;;;;;10.75;100.00;99216.81;5137550;27;20388;-79
2021/03/29 04:31:04;;;;;;;;;;;;;;;10.75;100.00;99212.00;5115925;28;19931;-79
2021/03/29 04:33:30;;;;;;;;;;;;;;;10.77;100.00;99214.38;5137543;27;19930;-79
2021/03/29 04:35:58;;;;;;;;;;;;;;;10.74;100.00;99210.44;5137308;27;19931;-79
2021/03/29 04:38:24;;;;;;;;;;;;;;;10.71;100.00;99214.06;5137186;27;20392;-78
2021/03/29 04:40:51;;;;;;;;;;;;;;;10.71;100.00;99216.84;5137287;27;20336;-78
2021/03/29 04:43:18;;;;;;;;;;;;;;;10.72;100.00;99206.47;5136987;27;20013;-79
2021/03/29 04:45:44;;;;;;;;;;;;;;;10.73;100.00;99196.88;5136488;27;19953;-78
2021/03/29 04:48:11;;;;;;;;;;;;;;;10.75;100.00;99197.25;5137020;27;19924;-78
2021/03/29 04:50:38;;;;;;;;;;;;;;;10.76;100.00;99204.41;5136886;27;19992;-79
2021/03/29 04:53:04;;;;;;;;;;;;;;;10.78;100.00;99199.22;5136922;27;19925;-79
2021/03/29 04:55:31;;;;;;;;;;;;;;;10.78;100.00;99202.00;5136891;27;19978;-78
2021/03/29 04:57:57;;;;;;;;;;;;;;;10.80;100.00;99202.34;5136856;27;20026;-79
2021/03/29 05:00:24;;;;;;;;;;;;;;;10.78;100.00;99193.63;5118358;27;20378;-78
2021/03/29 05:02:50;;;;;;;;;;;;;;;10.79;100.00;99196.00;5136964;27;20480;-78
2021/03/29 05:05:17;;;;;;;;;;;;;;;10.85;100.00;99210.28;5136842;27;19946;-78
2021/03/29 05:07:44;;;;;;;;;;;;;;;10.79;100.00;99206.38;5136605;27;19924;-78
2021/03/29 05:10:11;;;;;;;;;;;;;;;10.76;100.00;99215.59;5136736;27;19923;-79
2021/03/29 05:12:38;;;;;;;;;;;;;;;10.79;100.00;99207.16;5136541;27;19931;-79
2021/03/29 05:15:08;;;;;;;;;;;;;;;10.80;100.00;99213.53;5118350;27;20398;-79
2021/03/29 05:17:35;;;;;;;;;;;;;;;10.78;100.00;99215.97;5118197;27;19924;-78
2021/03/29 05:20:05;;;;;;;;;;;;;;;10.82;100.00;99222.28;5134035;27;20278;-78
2021/03/29 05:22:32;;;;;;;;;;;;;;;10.78;100.00;99227.16;5131946;27;19927;-79
2021/03/29 05:24:59;;;;;;;;;;;;;;;10.82;100.00;99194.34;5098525;27;19930;-79
2021/03/29 05:27:27;;;;;;;;;;;;;;;10.83;100.00;99219.06;5101034;28;19951;-78
2021/03/29 05:29:54;;;;;;;;;;;;;;;10.85;100.00;99229.84;5127001;27;19924;-78
2021/03/29 05:32:22;;;;;;;;;;;;;;;10.80;100.00;99224.72;5106046;27;19924;-79
2021/03/29 05:34:51;;;;;;;;;;;;;;;10.81;100.00;99238.25;5111289;28;19985;-79
2021/03/29 05:37:18;;;;;;;;;;;;;;;10.80;100.00;99244.28;5118691;27;19924;-79
2021/03/29 05:39:46;;;;;;;;;;;;;;;10.80;100.00;99247.06;5124583;27;19933;-77
2021/03/29 05:42:15;;;;;;;;;;;;;;;10.81;100.00;99248.66;5112708;27;19924;-79
2021/03/29 05:44:41;;;;;;;;;;;;;;;10.83;100.00;99265.78;5116819;27;19953;-90
2021/03/29 05:47:08;;;;;;;;;;;;;;;10.79;100.00;99265.88;5095913;27;20378;-89
2021/03/29 05:49:35;;;;;;;;;;;;;;;10.77;100.00;99265.47;5096070;28;19927;-79
2021/03/29 05:52:02;;;;;;;;;;;;;;;10.81;100.00;99265.44;5102276;27;19928;-77
2021/03/29 05:54:29;;;;;;;;;;;;;;;10.79;100.00;99265.88;5093210;27;19924;-76
2021/03/29 05:56:56;;;;;;;;;;;;;;;10.81;100.00;99271.03;5110990;27;19985;-77
2021/03/29 06:02:00;;;;;;;;;;;;;;;10.84;100.00;99259.00;5125549;27;19930;-79
2021/03/29 06:04:41;;;;;;;;;;;;;;;10.85;100.00;99249.41;5119647;27;20366;-79
2021/03/29 06:07:14;;;;;;;;;;;;;;;10.82;100.00;99239.06;5117808;27;20359;-79
2021/03/29 06:09:42;;;;;;;;;;;;;;;10.83;100.00;99247.03;5123778;27;19924;-79
2021/03/29 06:12:13;;;;;;;;;;;;;;;10.83;100.00;99249.03;5117898;27;19924;-79
2021/03/29 06:14:40;;;;;;;;;;;;;;;10.83;100.00;99246.22;5110756;27;19959;-79
2021/03/29 06:17:08;;;;;;;;;;;;;;;10.86;100.00;99256.56;5111866;27;20077;-78
2021/03/29 06:19:36;;;;;;;;;;;;;;;10.85;100.00;99260.59;5111099;27;19928;-79
2021/03/29 06:22:07;;;;;;;;;;;;;;;10.85;100.00;99253.00;5101390;27;19935;-79
2021/03/29 06:24:50;;;;;;;;;;;;;;;10.87;100.00;99252.56;5116527;27;20374;-78
2021/03/29 06:27:17;;;;;;;;;;;;;;;10.91;100.00;99265.28;5100931;27;19927;-78
2021/03/29 06:29:43;;;;;;;;;;;;;;;10.92;100.00;99260.47;5116006;27;19923;-79
2021/03/29 06:32:11;;;;;;;;;;;;;;;10.91;100.00;99261.69;5100570;28;20014;-79
2021/03/29 06:34:38;;;;;;;;;;;;;;;10.92;100.00;99252.88;5114860;27;19930;-78
2021/03/29 06:37:05;;;;;;;;;;;;;;;10.89;100.00;99264.13;5116148;27;19924;-79
2021/03/29 06:39:36;;;;;;;;;;;;;;;10.94;100.00;99277.63;5103763;28;20019;-79
2021/03/29 06:42:03;;;;;;;;;;;;;;;10.97;100.00;99279.59;5114798;27;19984;-79
2021/03/29 06:44:33;;;;;;;;;;;;;;;11.00;100.00;99284.34;5125447;27;19946;-79
2021/03/29 06:47:11;;;;;;;;;;;;;;;10.98;100.00;99291.56;5124757;27;20353;-79
2021/03/29 06:49:39;;;;;;;;;;;;;;;10.99;100.00;99291.16;5117250;27;19969;-78
2021/03/29 06:52:21;;;;;;;;;;;;;;;10.99;100.00;99294.72;5097530;27;20366;-77
2021/03/29 06:54:47;;;;;;;;;;;;;;;10.97;100.00;99299.16;5101252;27;20362;-78
2021/03/29 06:57:25;;;;;;;;;;;;;;;10.95;100.00;99293.19;5105959;27;19947;-78
2021/03/29 06:59:51;;;;;;;;;;;;;;;10.98;100.00;99300.72;5117272;27;19963;-78
2021/03/29 07:02:34;;;;;;;;;;;;;;;10.97;100.00;99290.75;5118383;27;19976;-78
2021/03/29 07:05:02;;;;;;;;;;;;;;;11.05;100.00;99297.84;5121769;27;20287;-78
2021/03/29 07:07:42;;;;;;;;;;;;;;;11.07;100.00;99306.63;5121626;27;19928;-78
2021/03/29 07:10:10;;;;;;;;;;;;;;;11.18;100.00;99304.44;5117682;27;19924;-78
2021/03/29 07:12:40;;;;;;;;;;;;;;;11.20;100.00;99310.41;5116868;27;20278;-78
2021/03/29 07:15:09;;;;;;;;;;;;;;;11.19;100.00;99308.03;5121707;27;19939;-78
2021/03/29 07:17:36;;;;;;;;;;;;;;;11.25;100.00;99318.34;5121523;27;19930;-78
2021/03/29 07:20:05;;;;;;;;;;;;;;;11.33;100.00;99311.41;5085388;27;19928;-78
2021/03/29 07:22:33;;;;;;;;;;;;;;;11.43;100.00;99307.69;5121557;27;19924;-78
2021/03/29 07:25:01;;;;;;;;;;;;;;;11.47;100.00;99316.78;5113906;27;20007;-78
2021/03/29 07:27:28;;;;;;;;;;;;;;;11.60;100.00;99311.41;5117408;27;19931;-78
2021/03/29 07:29:55;;;;;;;;;;;;;;;11.76;100.00;99320.75;5122515;27;19924;-78
2021/03/29 07:32:32;;;;;;;;;;;;;;;11.75;100.00;99330.38;5115846;28;19924;-77
2021/03/29 07:34:58;;;;;;;;;;;;;;;11.70;100.00;99291.66;5134258;28;19930;-77
2021/03/29 07:37:26;;;;;;;;;;;;;;;12.07;100.00;99310.22;5134261;28;19996;-77
2021/03/29 07:39:53;;;;;;;;;;;;;;;12.37;100.00;99327.63;5115665;28;20324;-78
2021/03/29 07:42:23;;;;;;;;;;;;;;;12.61;100.00;99336.81;5134077;28;19930;-78
2021/03/29 07:44:53;;;;;;;;;;;;;;;12.90;100.00;99337.81;5134154;28;19924;-78
2021/03/29 07:47:39;;;;;;;;;;;;;;;12.87;100.00;99312.63;5114980;28;19924;-78
2021/03/29 07:50:06;;;;;;;;;;;;;;;12.92;100.00;99331.78;5114634;28;19963;-78
2021/03/29 07:52:35;;;;;;;;;;;;;;;13.05;100.00;99332.72;5096974;28;19927;-78
2021/03/29 07:55:03;;;;;;;;;;;;;;;13.07;100.00;99333.06;5094763;28;20391;-78
2021/03/29 07:57:45;;;;;;;;;;;;;;;12.78;100.00;99347.66;5112427;28;20020;-78
2021/03/29 08:00:24;;;;;;;;;;;;;;;12.60;100.00;99338.03;5097494;28;19923;-78
2021/03/29 08:02:51;;;;;;;;;;;;;;;12.85;100.00;99337.50;5121163;28;19931;-78
2021/03/29 08:05:36;;;;;;;;;;;;;;;13.15;100.00;99334.47;5112162;28;20022;-77
2021/03/29 08:08:21;;;;;;;;;;;;;;;13.53;100.00;99336.41;5119306;28;19928;-82
2021/03/29 08:10:56;;;;;;;;;;;;;;;14.11;100.00;99329.75;5115070;28;20004;-78
2021/03/29 08:13:38;;;;;;;;;;;;;;;14.18;100.00;99309.09;5104609;28;19931;-78
2021/03/29 08:16:06;;;;;;;;;;;;;;;14.35;100.00;99335.97;5123105;28;19923;-78
2021/03/29 08:18:51;;;;;;;;;;;;;;;14.48;100.00;99331.19;5100482;28;20378;-79
2021/03/29 08:21:37;;;;;;;;;;;;;;;14.38;100.00;99319.03;5101348;28;19927;-87
2021/03/29 08:24:04;;;;;;;;;;;;;;;13.80;100.00;99350.19;5084166;28;19928;-80
2021/03/29 08:26:37;;;;;;;;;;;;;;;13.27;100.00;99350.69;5116990;27;20293;-86
2021/03/29 08:29:08;;;;;;;;;;;;;;;12.98;100.00;99361.66;5078324;27;20402;-84
2021/03/29 08:31:53;;;;;;;;;;;;;;;12.96;100.00;99368.94;5095167;28;19924;-82
2021/03/29 08:34:20;;;;;;;;;;;;;;;12.83;100.00;99376.44;5100669;27;19924;-78
2021/03/29 08:36:47;;;;;;;;;;;;;;;12.73;100.00;99373.41;5131376;27;19934;-85
2021/03/29 08:39:15;;;;;;;;;;;;;;;12.68;100.00;99381.50;5099651;27;19927;-91
2021/03/29 08:41:42;;;;;;;;;;;;;;;12.72;100.00;99377.41;5120110;27;19931;-88
2021/03/29 08:44:10;;;;;;;;;;;;;;;12.56;100.00;99385.75;5117728;27;19930;-89
2021/03/29 08:46:38;;;;;;;;;;;;;;;12.57;100.00;99378.91;5117212;27;20441;-91
2021/03/29 08:49:08;;;;;;;;;;;;;;;12.55;100.00;99388.97;5099998;27;20295;-91
2021/03/29 08:51:35;;;;;;;;;;;;;;;12.35;100.00;99405.75;5074764;27;19968;-79
2021/03/29 08:54:05;;;;;;;;;;;;;;;12.38;100.00;99393.69;5115698;27;20023;-79
2021/03/29 08:56:54;;;;;;;;;;;;;;;12.41;100.00;99398.44;5093190;28;19931;-79
2021/03/29 08:59:27;;;;;;;;;;;;;;;12.47;100.00;99402.34;5086090;28;20032;-79
2021/03/29 09:01:55;;;;;;;;;;;;;;;12.61;100.00;99410.50;5111654;27;19924;-79
2021/03/29 09:04:22;;;;;;;;;;;;;;;12.65;100.00;99404.78;5093069;28;19930;-79
2021/03/29 09:06:55;;;;;;;;;;;;;;;12.65;100.00;99422.41;5112270;27;19928;-79
2021/03/29 09:09:23;;;;;;;;;;;;;;;12.73;100.00;99417.47;5114604;27;19939;-79
2021/03/29 09:11:51;;;;;;;;;;;;;;;12.78;100.00;99412.13;5101314;28;19924;-77
2021/03/29 09:14:20;;;;;;;;;;;;;;;12.92;100.00;99432.75;5111148;27;20439;-78
2021/03/29 09:16:57;;;;;;;;;;;;;;;12.88;100.00;99418.78;5114931;27;19928;-77
2021/03/29 09:19:24;;;;;;;;;;;;;;;13.01;100.00;99427.38;5113227;27;19924;-78
2021/03/29 09:21:56;;;;;;;;;;;;;;;13.25;100.00;99424.06;5081643;28;19935;-79
2021/03/29 09:24:28;;;;;;;;;;;;;;;13.42;100.00;99438.94;5091993;28;19924;-79
2021/03/29 09:26:58;;;;;;;;;;;;;;;13.54;100.00;99443.91;5116077;27;19946;-79
2021/03/29 09:29:31;;;;;;;;;;;;;;;13.62;100.00;99434.06;5098753;28;20485;-79
2021/03/29 09:32:17;;;;;;;;;;;;;;;13.66;100.00;99415.16;5091669;28;19924;-79
2021/03/29 09:34:48;;;;;;;;;;;;;;;13.72;100.00;99444.28;5095634;28;20382;-78
2021/03/29 09:37:25;;;;;;;;;;;;;;;13.75;100.00;99443.41;5115254;27;19931;-78
2021/03/29 09:40:04;;;;;;;;;;;;;;;13.93;100.00;99438.19;5101657;28;19930;-78
2021/03/29 09:42:41;;;;;;;;;;;;;;;14.00;100.00;99466.09;5108046;28;19924;-79
2021/03/29 09:45:11;;;;;;;;;;;;;;;14.01;100.00;99451.63;5101670;27;19924;-79
2021/03/29 09:47:37;;;;;;;;;;;;;;;14.04;100.00;99438.72;5099515;28;19924;-78
2021/03/29 09:50:10;;;;;;;;;;;;;;;13.92;100.00;99453.44;5100939;27;20402;-78
2021/03/29 09:52:40;;;;;;;;;;;;;;;13.93;100.00;99466.28;5127991;27;19931;-79
2021/03/29 09:55:11;;;;;;;;;;;;;;;13.93;100.00;99466.28;5115822;27;19931;-77
2021/03/29 09:57:42;;;;;;;;;;;;;;;14.07;100.00;99460.34;5103754;27;19972;-78
2021/03/29 10:00:14;;;;;;;;;;;;;;;14.09;100.00;99457.84;5125537;27;19943;-78
2021/03/29 10:02:41;;;;;;;;;;;;;;;13.99;100.00;99464.53;5114287;27;19981;-77
2021/03/29 10:05:08;;;;;;;;;;;;;;;13.91;100.00;99474.34;5088746;28;20016;-78
2021/03/29 10:07:35;;;;;;;;;;;;;;;13.92;100.00;99478.72;5126983;27;19931;-78
2021/03/29 10:10:04;;;;;;;;;;;;;;;14.04;100.00;99486.50;5104194;27;19923;-78
2021/03/29 10:12:31;;;;;;;;;;;;;;;14.03;100.00;99487.69;5118368;27;20018;-78
2021/03/29 10:15:08;;;;;;;;;;;;;;;14.15;100.00;99478.59;5126416;27;19923;-78
2021/03/29 10:17:36;;;;;;;;;;;;;;;14.04;100.00;99486.50;5109088;27;19924;-77
2021/03/29 10:20:06;;;;;;;;;;;;;;;14.18;100.00;99478.50;5103266;27;19973;-78
2021/03/29 10:22:32;;;;;;;;;;;;;;;14.00;100.00;99477.34;5119489;27;19928;-78
2021/03/29 10:25:16;;;;;;;;;;;;;;;14.13;100.00;99487.44;5127512;27;20370;-78
2021/03/29 10:27:53;;;;;;;;;;;;;;;14.32;100.00;99480.22;5092236;27;19927;-78
2021/03/29 10:30:19;;;;;;;;;;;;;;;14.38;100.00;99498.13;5122003;27;20446;-78
2021/03/29 10:32:49;;;;;;;;;;;;;;;14.50;100.00;99489.00;5118757;27;19927;-78
2021/03/29 10:35:16;;;;;;;;;;;;;;;14.87;100.00;99507.34;5116749;27;20347;-78
2021/03/29 10:37:43;;;;;;;;;;;;;;;14.75;100.00;99500.44;5101592;28;19927;-78
2021/03/29 10:40:10;;;;;;;;;;;;;;;14.82;100.00;99500.22;5129410;27;19949;-78
2021/03/29 10:42:40;;;;;;;;;;;;;;;14.87;100.00;99498.91;5115455;27;19935;-78
2021/03/29 10:45:10;;;;;;;;;;;;;;;15.22;100.00;99500.75;5133844;27;19924;-78
2021/03/29 10:47:37;;;;;;;;;;;;;;;15.21;100.00;99502.78;5115726;27;20397;-78
2021/03/29 10:50:05;;;;;;;;;;;;;;;15.17;100.00;99499.28;5133969;27;19934;-78
2021/03/29 10:52:31;;;;;;;;;;;;;;;15.05;100.00;99508.47;5115532;27;20306;-78
2021/03/29 10:54:58;;;;;;;;;;;;;;;15.16;100.00;99508.94;5133876;27;19929;-78
2021/03/29 10:57:26;;;;;;;;;;;;;;;15.54;100.00;99524.00;5133627;27;19976;-78
2021/03/29 10:59:54;;;;;;;;;;;;;;;15.83;100.00;99527.56;5133811;27;19924;-78
2021/03/29 11:02:22;;;;;;;;;;;;;;;15.80;100.00;99514.38;5115028;27;19928;-78
2021/03/29 11:04:49;;;;;;;;;;;;;;;15.73;100.00;99525.88;5134017;27;19927;-78
2021/03/29 11:07:40;;;;;;;;;;;;;;;15.56;100.00;99524.34;5115479;27;19935;-78
2021/03/29 11:10:07;;;;;;;;;;;;;;;15.66;100.00;99526.06;5133625;27;20306;-78
2021/03/29 11:12:34;;;;;;;;;;;;;;;15.63;100.00;99529.75;5115315;27;19967;-78
2021/03/29 11:15:00;;;;;;;;;;;;;;;15.72;100.00;99529.91;5133615;27;19924;-77
2021/03/29 11:17:29;;;;;;;;;;;;;;;15.72;100.00;99529.91;5133308;27;19924;-78
2021/03/29 11:19:55;;;;;;;;;;;;;;;15.72;100.00;99523.50;5115347;27;19924;-78
2021/03/29 11:22:22;;;;;;;;;;;;;;;15.66;100.00;99528.88;5115422;27;19924;-78
2021/03/29 11:24:49;;;;;;;;;;;;;;;15.32;100.00;99520.19;5098006;27;19930;-78
2021/03/29 11:27:15;;;;;;;;;;;;;;;15.07;100.00;99522.88;5133492;27;19933;-78
2021/03/29 11:29:42;;;;;;;;;;;;;;;14.84;100.00;99530.72;5133110;27;20332;-78
2021/03/29 11:32:09;;;;;;;;;;;;;;;14.84;100.00;99539.97;5115042;28;19973;-78
2021/03/29 11:34:35;;;;;;;;;;;;;;;14.80;100.00;99550.50;5133234;28;20479;-78
2021/03/29 11:37:03;;;;;;;;;;;;;;;14.96;100.00;99550.50;5115101;28;20313;-78
2021/03/29 11:39:30;;;;;;;;;;;;;;;15.04;100.00;99557.50;5133255;28;19934;-78
2021/03/29 11:41:57;;;;;;;;;;;;;;;15.15;100.00;99557.22;5133084;28;20084;-78
2021/03/29 11:44:24;;;;;;;;;;;;;;;15.32;100.00;99550.34;5132875;28;20495;-78
2021/03/29 11:46:52;;;;;;;;;;;;;;;15.46;100.00;99559.25;5133317;28;19924;-78
2021/03/29 11:49:19;;;;;;;;;;;;;;;15.24;100.00;99551.75;5133446;28;19953;-78
2021/03/29 11:51:45;;;;;;;;;;;;;;;15.35;100.00;99555.88;5114972;28;19976;-78
2021/03/29 11:54:12;;;;;;;;;;;;;;;15.38;100.00;99557.03;5114694;28;19923;-78
2021/03/29 11:56:39;;;;;;;;;;;;;;;15.22;100.00;99563.47;5125208;27;20358;-77
2021/03/29 11:59:05;;;;;;;;;;;;;;;15.24;100.00;99554.56;5122984;27;20008;-79
2021/03/29 12:01:56;;;;;;;;;;;;;;;15.28;100.00;99561.69;5128934;27;19928;-76
2021/03/29 12:07:00;;;;;;;;;;;;;;;14.95;100.00;99560.16;5124110;27;20516;-77
2021/03/29 12:09:34;;;;;;;;;;;;;;;14.98;100.00;99564.91;5126876;27;20401;-77
2021/03/29 12:12:06;;;;;;;;;;;;;;;15.42;100.00;99583.88;5107859;28;20410;-77
2021/03/29 12:14:37;;;;;;;;;;;;;;;15.47;100.00;99574.88;5126285;27;20351;-77
2021/03/29 12:17:05;;;;;;;;;;;;;;;15.81;100.00;99586.38;5122829;27;20347;-79
2021/03/29 12:19:32;;;;;;;;;;;;;;;15.96;100.00;99583.97;5103666;28;19928;-80
2021/03/29 12:22:05;;;;;;;;;;;;;;;15.95;100.00;99582.34;5126549;27;19930;-79
2021/03/29 12:24:35;;;;;;;;;;;;;;;15.72;100.00;99574.97;5108302;27;19974;-79
2021/03/29 12:27:04;;;;;;;;;;;;;;;15.38;100.00;99571.94;5121650;27;20442;-79
2021/03/29 12:29:39;;;;;;;;;;;;;;;15.29;100.00;99566.09;5120411;27;19935;-79
2021/03/29 12:32:07;;;;;;;;;;;;;;;15.34;100.00;99571.19;5091816;28;19935;-79
2021/03/29 12:34:34;;;;;;;;;;;;;;;15.26;100.00;99575.44;5113004;27;19928;-80
2021/03/29 12:37:03;;;;;;;;;;;;;;;15.37;100.00;99575.97;5095914;28;19931;-80
2021/03/29 12:39:50;;;;;;;;;;;;;;;15.38;100.00;99571.94;5123401;27;19932;-80
2021/03/29 12:42:22;;;;;;;;;;;;;;;15.43;100.00;99581.84;5115602;28;19924;-80
2021/03/29 12:44:49;;;;;;;;;;;;;;;15.25;100.00;99573.84;5128704;27;20367;-80
2021/03/29 12:47:34;;;;;;;;;;;;;;;15.31;100.00;99574.13;5123076;27;20378;-79
2021/03/29 12:50:09;;;;;;;;;;;;;;;15.13;100.00;99568.16;5132564;27;19958;-79
2021/03/29 12:52:36;;;;;;;;;;;;;;;15.21;100.00;99575.16;5104949;27;19931;-79